Time;durP1;ratioP1;P1;durP2;ratioP2;P2;SDS_P1;SDS_P2;PMS_P1;PMS_P2;Temp;Humidity;BMP_temperature;BMP_pressure;BME280_temperature;BME280_humidity;BME280_pressure;Samples;Min_cycle;Max_cycle;Signal;HPM_P1;HPM_P2
2024/01/27 00:02:37;;;;;;;8.80;2.97;;;4.00;99.90;;;;;;4408144;28;653576;-74
2024/01/27 00:05:24;;;;;;;5.95;2.47;;;3.90;99.90;;;;;;4409409;28;653360;-74
2024/01/27 00:08:13;;;;;;;12.07;3.27;;;3.80;99.90;;;;;;4409858;28;653629;-75
2024/01/27 00:11:00;;;;;;;8.03;3.13;;;3.70;99.90;;;;;;4378058;28;654901;-75
2024/01/27 00:13:47;;;;;;;7.17;2.13;;;3.60;99.90;;;;;;4388890;28;653449;-74
2024/01/27 00:16:35;;;;;;;6.80;1.87;;;3.50;99.90;;;;;;4407913;28;653745;-75
2024/01/27 00:19:22;;;;;;;11.20;2.93;;;3.50;99.90;;;;;;4413523;28;653297;-76
2024/01/27 00:22:10;;;;;;;7.23;2.07;;;3.40;99.90;;;;;;4413846;28;654832;-75
2024/01/27 00:24:58;;;;;;;3.07;1.30;;;3.40;99.90;;;;;;4406098;28;653249;-76
2024/01/27 00:27:45;;;;;;;3.30;1.40;;;3.30;99.90;;;;;;4378378;28;653233;-76
2024/01/27 00:30:32;;;;;;;6.07;1.65;;;3.30;99.90;;;;;;4381119;28;653659;-74
2024/01/27 00:33:20;;;;;;;10.43;1.73;;;3.30;99.90;;;;;;4403265;28;652874;-76
2024/01/27 00:36:07;;;;;;;6.80;1.50;;;3.30;99.90;;;;;;4407054;28;655196;-76
2024/01/27 00:38:54;;;;;;;5.73;1.00;;;3.40;99.90;;;;;;4379380;28;653652;-76
2024/01/27 00:41:43;;;;;;;5.47;1.90;;;3.40;99.90;;;;;;4416169;28;654105;-76
2024/01/27 00:44:30;;;;;;;6.83;1.60;;;3.30;99.90;;;;;;4414232;28;654550;-76
2024/01/27 00:47:17;;;;;;;2.93;1.00;;;3.30;99.90;;;;;;4417007;28;653513;-75
2024/01/27 00:50:05;;;;;;;4.97;1.40;;;3.30;99.90;;;;;;4426683;28;653120;-76
2024/01/27 00:52:53;;;;;;;8.20;1.60;;;3.20;99.90;;;;;;4411419;28;653627;-75
2024/01/27 00:55:40;;;;;;;5.67;1.17;;;3.20;99.90;;;;;;4429101;28;654032;-77
2024/01/27 00:58:29;;;;;;;6.93;1.27;;;3.20;99.90;;;;;;4411918;28;653857;-74
2024/01/27 01:01:16;;;;;;;11.87;1.53;;;3.20;99.90;;;;;;4436227;28;653336;-76
2024/01/27 01:04:03;;;;;;;6.13;1.37;;;3.20;99.90;;;;;;4421312;28;654631;-76
2024/01/27 01:06:50;;;;;;;9.77;1.80;;;3.20;99.90;;;;;;4436373;28;653855;-77
2024/01/27 01:09:38;;;;;;;7.03;1.30;;;3.20;99.90;;;;;;4413526;28;653186;-75
2024/01/27 01:12:25;;;;;;;6.80;1.20;;;3.20;99.90;;;;;;4432461;28;653530;-76
2024/01/27 01:15:14;;;;;;;5.50;1.40;;;3.20;99.90;;;;;;4406442;28;653290;-75
2024/01/27 01:18:01;;;;;;;5.43;0.90;;;3.20;99.90;;;;;;4440046;28;653321;-77
2024/01/27 01:20:48;;;;;;;5.00;0.73;;;3.20;99.90;;;;;;4408178;28;653230;-76
2024/01/27 01:23:35;;;;;;;4.30;1.00;;;3.20;99.90;;;;;;4438759;28;653942;-76
2024/01/27 01:26:23;;;;;;;6.17;1.30;;;3.20;99.90;;;;;;4397852;28;654134;-76
2024/01/27 01:29:10;;;;;;;12.33;1.57;;;3.20;99.90;;;;;;4417426;28;655120;-77
2024/01/27 01:31:59;;;;;;;1.67;0.83;;;3.20;99.90;;;;;;4435658;28;654882;-75
2024/01/27 01:34:47;;;;;;;4.30;1.00;;;3.20;99.90;;;;;;4419622;28;654008;-77
2024/01/27 01:37:34;;;;;;;5.50;0.93;;;3.20;99.90;;;;;;4401131;28;653836;-77
2024/01/27 01:40:21;;;;;;;4.37;0.80;;;3.20;99.90;;;;;;4431116;28;653695;-77
2024/01/27 01:43:11;;;;;;;3.23;0.90;;;3.20;99.90;;;;;;4415184;28;653889;-77
2024/01/27 01:45:58;;;;;;;6.70;1.27;;;3.20;99.90;;;;;;4426438;28;653343;-76
2024/01/27 01:48:47;;;;;;;4.23;0.70;;;3.20;99.90;;;;;;4427461;28;654169;-77
2024/01/27 01:51:34;;;;;;;8.03;1.07;;;3.30;99.90;;;;;;4402518;28;654781;-77
2024/01/27 01:54:22;;;;;;;6.93;1.23;;;3.20;99.90;;;;;;4436791;28;653923;-77
2024/01/27 01:57:09;;;;;;;8.67;1.23;;;3.20;99.90;;;;;;4399480;28;654634;-76
2024/01/27 01:59:56;;;;;;;17.20;1.97;;;3.30;99.90;;;;;;4434916;28;653763;-77
2024/01/27 02:02:45;;;;;;;6.53;1.30;;;3.20;99.90;;;;;;4398791;28;653937;-75
2024/01/27 02:05:34;;;;;;;9.33;1.47;;;2.90;99.90;;;;;;4431097;28;653453;-75
2024/01/27 02:08:21;;;;;;;8.67;1.27;;;2.80;99.90;;;;;;4431223;28;653620;-76
2024/01/27 02:11:08;;;;;;;5.27;1.23;;;2.70;99.90;;;;;;4411893;28;653573;-75
2024/01/27 02:13:55;;;;;;;8.23;1.67;;;2.60;99.90;;;;;;4440042;28;653679;-76
2024/01/27 02:16:43;;;;;;;5.37;1.43;;;2.60;99.90;;;;;;4418811;28;653453;-75
2024/01/27 02:19:30;;;;;;;8.20;1.33;;;2.60;99.90;;;;;;4434175;28;653903;-75
2024/01/27 02:22:19;;;;;;;7.30;1.87;;;2.60;99.90;;;;;;4427344;28;653053;-75
2024/01/27 02:25:08;;;;;;;7.03;1.77;;;2.60;99.90;;;;;;4437793;28;653339;-75
2024/01/27 02:27:55;;;;;;;7.00;1.70;;;2.70;99.90;;;;;;4412779;28;654054;-75
2024/01/27 02:30:42;;;;;;;8.23;1.60;;;2.70;99.90;;;;;;4421097;28;654066;-74
2024/01/27 02:33:30;;;;;;;10.93;2.00;;;2.70;99.90;;;;;;4434899;28;654455;-76
2024/01/27 02:36:17;;;;;;;6.07;0.80;;;2.80;99.90;;;;;;4410755;28;654684;-74
2024/01/27 02:39:05;;;;;;;8.07;1.70;;;2.90;99.90;;;;;;4435975;28;653111;-76
2024/01/27 02:41:54;;;;;;;10.10;1.73;;;2.90;99.90;;;;;;4427282;28;653724;-76
2024/01/27 02:44:41;;;;;;;10.70;1.67;;;2.90;99.90;;;;;;4408664;28;654989;-77
2024/01/27 02:47:28;;;;;;;6.83;1.17;;;2.90;99.90;;;;;;4411613;28;655392;-76
2024/01/27 02:50:16;;;;;;;13.13;1.90;;;2.90;99.90;;;;;;4437626;28;654189;-76
2024/01/27 02:53:03;;;;;;;11.57;1.97;;;2.90;99.90;;;;;;4413950;28;654851;-76
2024/01/27 02:55:51;;;;;;;10.90;2.37;;;3.00;99.90;;;;;;4437406;28;654029;-77
2024/01/27 02:58:42;;;;;;;16.00;2.50;;;3.00;99.90;;;;;;4421506;28;655913;-76
2024/01/27 03:01:29;;;;;;;12.57;2.17;;;3.00;99.90;;;;;;4404882;28;654565;-76
2024/01/27 03:04:16;;;;;;;17.43;2.73;;;2.90;99.90;;;;;;4428185;28;654795;-76
2024/01/27 03:07:04;;;;;;;9.67;2.03;;;2.90;99.90;;;;;;4415078;28;654429;-76
2024/01/27 03:09:51;;;;;;;5.70;1.60;;;2.90;99.90;;;;;;4440728;28;653494;-77
2024/01/27 03:12:39;;;;;;;7.07;1.73;;;2.90;99.90;;;;;;4421808;28;654205;-76
2024/01/27 03:15:27;;;;;;;6.47;1.70;;;2.90;99.90;;;;;;4431804;28;654398;-75
2024/01/27 03:18:14;;;;;;;13.47;1.30;;;3.00;99.90;;;;;;4416875;28;654057;-76
2024/01/27 03:21:02;;;;;;;14.60;2.30;;;3.00;99.90;;;;;;4422531;28;654718;-78
2024/01/27 03:23:49;;;;;;;5.13;1.20;;;2.90;99.90;;;;;;4420727;28;654682;-77
2024/01/27 03:26:36;;;;;;;3.10;0.57;;;2.90;99.90;;;;;;4440373;28;653844;-77
2024/01/27 03:29:23;;;;;;;11.00;1.70;;;3.00;99.90;;;;;;4416689;28;653464;-76
2024/01/27 03:32:12;;;;;;;10.23;1.90;;;3.00;99.90;;;;;;4422079;28;654397;-76
2024/01/27 03:34:59;;;;;;;9.13;1.60;;;2.90;99.90;;;;;;4415841;28;654537;-77
2024/01/27 03:37:46;;;;;;;4.50;1.00;;;2.90;99.90;;;;;;4440428;28;653308;-78
2024/01/27 03:40:34;;;;;;;4.47;1.50;;;2.90;99.90;;;;;;4408653;28;653753;-77
2024/01/27 03:43:21;;;;;;;15.73;2.07;;;2.80;99.90;;;;;;4435239;28;655280;-77
2024/01/27 03:46:10;;;;;;;10.43;2.23;;;2.70;99.90;;;;;;4410300;28;654783;-75
2024/01/27 03:48:59;;;;;;;7.30;1.93;;;2.40;99.90;;;;;;4401281;28;654687;-75
2024/01/27 03:51:46;;;;;;;13.50;1.97;;;2.40;99.90;;;;;;4442207;28;653501;-75
2024/01/27 03:54:33;;;;;;;19.83;2.63;;;2.20;99.90;;;;;;4406946;28;654919;-76
2024/01/27 03:57:21;;;;;;;6.73;1.47;;;2.20;99.90;;;;;;4434339;28;655399;-76
2024/01/27 04:00:10;;;;;;;8.37;1.57;;;2.20;99.90;;;;;;4411795;28;654003;-76
2024/01/27 04:02:57;;;;;;;7.57;1.53;;;2.20;99.90;;;;;;4426103;28;653389;-75
2024/01/27 04:05:46;;;;;;;10.53;2.30;;;2.20;99.90;;;;;;4435846;28;653818;-76
2024/01/27 04:08:34;;;;;;;12.40;2.33;;;2.20;99.90;;;;;;4412651;28;654538;-76
2024/01/27 04:11:22;;;;;;;11.57;2.67;;;2.10;99.90;;;;;;4437463;28;655254;-75
2024/01/27 04:14:09;;;;;;;6.13;2.13;;;2.00;99.90;;;;;;4399934;28;654507;-76
2024/01/27 04:16:56;;;;;;;6.27;1.63;;;2.00;99.90;;;;;;4437427;28;652979;-76
2024/01/27 04:19:43;;;;;;;7.57;2.10;;;2.00;99.90;;;;;;4405545;28;654182;-74
2024/01/27 04:22:32;;;;;;;13.93;3.33;;;1.80;99.90;;;;;;4437652;28;654145;-74
2024/01/27 04:25:19;;;;;;;12.40;3.47;;;1.60;99.90;;;;;;4408832;28;655845;-75
2024/01/27 04:28:09;;;;;;;10.60;2.50;;;1.50;99.90;;;;;;4426192;28;655241;-75
2024/01/27 04:30:56;;;;;;;14.67;2.63;;;1.60;99.90;;;;;;4409922;28;654976;-74
2024/01/27 04:33:43;;;;;;;12.83;3.30;;;1.60;99.90;;;;;;4395488;28;654969;-74
2024/01/27 04:36:30;;;;;;;19.90;3.72;;;1.60;99.90;;;;;;4426172;28;655432;-75
2024/01/27 04:39:19;;;;;;;15.87;3.10;;;1.80;99.90;;;;;;4411465;28;654044;-75
2024/01/27 04:42:06;;;;;;;18.47;4.10;;;1.80;99.90;;;;;;4427860;28;654531;-75
2024/01/27 04:44:54;;;;;;;16.65;3.33;;;1.90;99.90;;;;;;4417077;28;654233;-75
2024/01/27 04:47:41;;;;;;;16.83;4.23;;;2.00;99.90;;;;;;4437939;28;654998;-76
2024/01/27 04:50:28;;;;;;;11.63;2.50;;;2.10;99.90;;;;;;4417822;28;655874;-75
2024/01/27 04:53:15;;;;;;;16.70;3.33;;;2.10;99.90;;;;;;4422009;28;654871;-76
2024/01/27 04:56:07;;;;;;;12.03;2.47;;;2.20;99.90;;;;;;4408003;28;655494;-75
2024/01/27 04:58:55;;;;;;;18.70;3.63;;;2.20;99.90;;;;;;4417467;28;655795;-76
2024/01/27 05:01:45;;;;;;;13.77;2.07;;;2.10;99.90;;;;;;4439565;28;654662;-76
2024/01/27 05:04:32;;;;;;;5.17;1.67;;;2.20;99.90;;;;;;4406105;28;654781;-74
2024/01/27 05:07:20;;;;;;;15.63;3.27;;;2.20;99.90;;;;;;4437841;28;653567;-76
2024/01/27 05:10:08;;;;;;;13.00;2.50;;;2.20;99.90;;;;;;4434188;28;654989;-77
2024/01/27 05:12:56;;;;;;;10.03;2.20;;;2.20;99.90;;;;;;4414093;28;655084;-76
2024/01/27 05:15:43;;;;;;;9.13;2.13;;;2.20;99.90;;;;;;4398289;28;655151;-75
2024/01/27 05:18:31;;;;;;;14.80;2.60;;;2.10;99.90;;;;;;4447801;28;653579;-76
2024/01/27 05:21:18;;;;;;;7.33;2.10;;;2.10;99.90;;;;;;4418645;28;654551;-75
2024/01/27 05:24:05;;;;;;;11.80;1.57;;;2.10;99.90;;;;;;4424828;28;654250;-76
2024/01/27 05:26:53;;;;;;;21.23;3.13;;;2.10;99.90;;;;;;4398046;28;654575;-75
2024/01/27 05:29:41;;;;;;;15.30;3.10;;;2.10;99.90;;;;;;4416878;28;655205;-76
2024/01/27 05:32:28;;;;;;;12.90;3.40;;;2.20;99.90;;;;;;4421190;28;655082;-76
2024/01/27 05:35:16;;;;;;;15.63;3.00;;;2.30;99.90;;;;;;4424126;28;655813;-76
2024/01/27 05:38:03;;;;;;;27.77;3.17;;;2.20;99.90;;;;;;4404083;28;654848;-76
2024/01/27 05:40:50;;;;;;;14.23;3.27;;;2.30;99.90;;;;;;4425658;28;656371;-77
2024/01/27 05:43:38;;;;;;;19.17;4.03;;;2.30;99.90;;;;;;4419101;28;654508;-75
2024/01/27 05:46:26;;;;;;;14.37;2.90;;;2.30;99.90;;;;;;4424892;28;654898;-77
2024/01/27 05:49:13;;;;;;;14.52;2.42;;;2.30;99.90;;;;;;4413867;28;655297;-76
2024/01/27 05:52:01;;;;;;;10.47;2.43;;;2.30;99.90;;;;;;4430825;28;655516;-77
2024/01/27 05:54:48;;;;;;;19.87;1.80;;;2.30;99.90;;;;;;4424793;28;654448;-77
2024/01/27 05:57:35;;;;;;;9.97;1.97;;;2.40;99.90;;;;;;4439810;28;655149;-75
2024/01/27 06:00:23;;;;;;;9.70;2.57;;;2.40;99.90;;;;;;4423314;28;653795;-75
2024/01/27 06:03:11;;;;;;;17.17;1.97;;;2.50;99.90;;;;;;4419600;28;655009;-77
2024/01/27 06:05:59;;;;;;;17.73;2.40;;;2.40;99.90;;;;;;4411883;28;655145;-77
2024/01/27 06:08:46;;;;;;;8.73;1.70;;;2.50;99.90;;;;;;4445720;28;655162;-78
2024/01/27 06:11:33;;;;;;;11.23;2.17;;;2.50;99.90;;;;;;4416721;28;653531;-77
2024/01/27 06:14:20;;;;;;;12.83;1.80;;;2.50;99.90;;;;;;4434119;28;655593;-78
2024/01/27 06:17:07;;;;;;;11.30;2.33;;;2.50;99.90;;;;;;4416624;28;654609;-76
2024/01/27 06:19:56;;;;;;;9.97;1.90;;;2.50;99.90;;;;;;4436614;28;654894;-77
2024/01/27 06:22:43;;;;;;;20.17;2.63;;;2.50;99.90;;;;;;4410042;28;653671;-77
2024/01/27 06:25:30;;;;;;;9.97;1.97;;;2.50;99.90;;;;;;4436439;28;654649;-77
2024/01/27 06:28:17;;;;;;;11.02;1.73;;;2.50;99.90;;;;;;4420651;28;653200;-76
2024/01/27 06:31:05;;;;;;;12.93;2.33;;;2.40;99.90;;;;;;4428594;28;654854;-77
2024/01/27 06:33:52;;;;;;;7.20;1.60;;;2.40;99.90;;;;;;4429828;28;655056;-75
2024/01/27 06:36:41;;;;;;;21.33;2.43;;;2.40;99.90;;;;;;4407784;28;653470;-76
2024/01/27 06:39:29;;;;;;;10.73;1.97;;;2.40;99.90;;;;;;4406092;28;654798;-77
2024/01/27 06:42:16;;;;;;;11.73;2.20;;;2.40;99.90;;;;;;4431066;28;654351;-77
2024/01/27 06:45:04;;;;;;;10.23;2.47;;;2.40;99.90;;;;;;4402675;28;654917;-76
2024/01/27 06:47:51;;;;;;;11.27;2.17;;;2.40;99.90;;;;;;4444059;28;653954;-76
2024/01/27 06:50:38;;;;;;;5.13;1.80;;;2.40;99.90;;;;;;4416983;28;654748;-76
2024/01/27 06:53:27;;;;;;;16.20;2.70;;;2.50;99.90;;;;;;4424286;28;653901;-77
2024/01/27 06:56:14;;;;;;;10.23;2.00;;;2.40;99.90;;;;;;4412061;28;655294;-77
2024/01/27 06:59:01;;;;;;;10.52;1.88;;;2.40;99.90;;;;;;4439630;28;654861;-77
2024/01/27 07:01:49;;;;;;;6.83;1.50;;;2.40;99.90;;;;;;4410816;28;654606;-75
2024/01/27 07:04:36;;;;;;;11.70;1.70;;;2.50;99.90;;;;;;4437156;28;653037;-76
2024/01/27 07:07:24;;;;;;;8.63;2.00;;;2.50;99.90;;;;;;4416280;28;654844;-76
2024/01/27 07:10:12;;;;;;;21.77;2.63;;;2.50;99.90;;;;;;4433171;28;653613;-75
2024/01/27 07:13:00;;;;;;;13.43;1.83;;;2.50;99.90;;;;;;4418200;28;654798;-75
2024/01/27 07:15:47;;;;;;;10.63;2.60;;;2.50;99.90;;;;;;4428019;28;654982;-75
2024/01/27 07:18:35;;;;;;;16.00;2.00;;;2.50;99.90;;;;;;4413401;28;654317;-75
2024/01/27 07:21:22;;;;;;;13.27;2.00;;;2.50;99.90;;;;;;4424696;28;655552;-75
2024/01/27 07:24:10;;;;;;;6.10;1.73;;;2.50;99.90;;;;;;4438003;28;654911;-76
2024/01/27 07:26:59;;;;;;;5.77;0.90;;;2.50;99.90;;;;;;4440206;28;654040;-74
2024/01/27 07:29:46;;;;;;;10.33;2.33;;;2.60;99.90;;;;;;4416253;28;653932;-76
2024/01/27 07:32:33;;;;;;;9.57;1.73;;;2.50;99.90;;;;;;4416400;28;655661;-75
2024/01/27 07:35:20;;;;;;;6.70;1.63;;;2.50;99.90;;;;;;4430561;28;654568;-74
2024/01/27 07:38:08;;;;;;;11.50;2.20;;;2.60;99.90;;;;;;4418053;28;654834;-74
2024/01/27 07:40:55;;;;;;;13.80;2.33;;;2.50;99.90;;;;;;4435041;28;656345;-75
2024/01/27 07:43:44;;;;;;;13.33;2.43;;;2.60;99.90;;;;;;4420924;28;656157;-75
2024/01/27 07:46:31;;;;;;;15.00;2.00;;;2.60;99.90;;;;;;4422557;28;655861;-75
2024/01/27 07:49:18;;;;;;;11.33;2.33;;;2.60;99.90;;;;;;4399649;28;656873;-75
2024/01/27 07:52:06;;;;;;;21.17;3.07;;;2.50;99.90;;;;;;4435064;28;656312;-75
2024/01/27 07:54:54;;;;;;;10.50;2.30;;;2.60;99.90;;;;;;4417994;28;656888;-74
2024/01/27 07:57:41;;;;;;;8.82;2.20;;;2.50;99.90;;;;;;4436927;28;655581;-75
2024/01/27 08:00:31;;;;;;;13.77;2.40;;;2.60;99.90;;;;;;4410886;28;654528;-75
2024/01/27 08:03:18;;;;;;;10.77;1.83;;;2.60;99.90;;;;;;4415143;28;655253;-75
2024/01/27 08:06:07;;;;;;;19.20;2.73;;;2.60;99.90;;;;;;4435047;28;656160;-75
2024/01/27 08:08:54;;;;;;;10.93;2.80;;;2.60;99.90;;;;;;4412359;28;656643;-75
2024/01/27 08:11:41;;;;;;;19.40;2.77;;;2.60;99.90;;;;;;4433699;28;655405;-75
2024/01/27 08:14:29;;;;;;;11.07;2.33;;;2.50;99.90;;;;;;4403534;28;655658;-76
2024/01/27 08:17:18;;;;;;;9.90;1.83;;;2.60;99.90;;;;;;4426489;28;656310;-75
2024/01/27 08:20:08;;;;;;;15.93;2.47;;;2.60;99.90;;;;;;4425941;28;655221;-76
2024/01/27 08:22:55;;;;;;;11.40;1.90;;;2.50;99.90;;;;;;4415706;28;655882;-75
2024/01/27 08:25:45;;;;;;;13.25;2.72;;;2.50;99.90;;;;;;4414296;28;655244;-76
2024/01/27 08:28:33;;;;;;;14.13;2.20;;;2.50;99.90;;;;;;4424048;28;655719;-75
2024/01/27 08:31:20;;;;;;;9.43;2.17;;;2.50;99.90;;;;;;4436166;28;657014;-75
2024/01/27 08:34:09;;;;;;;12.20;2.90;;;2.50;99.90;;;;;;4434396;28;654491;-75
2024/01/27 08:37:02;;;;;;;20.10;3.67;;;2.50;99.90;;;;;;4442577;28;655832;-75
2024/01/27 08:39:50;;;;;;;13.63;1.97;;;2.50;99.90;;;;;;4393519;28;655719;-76
2024/01/27 08:42:38;;;;;;;18.47;3.20;;;2.60;99.90;;;;;;4415438;28;655896;-75
2024/01/27 08:45:26;;;;;;;13.53;2.90;;;2.50;99.90;;;;;;4439764;28;656669;-75
2024/01/27 08:48:13;;;;;;;11.37;1.97;;;2.60;99.90;;;;;;4409144;28;655304;-75
2024/01/27 08:51:01;;;;;;;14.87;2.77;;;2.60;99.90;;;;;;4431850;28;656439;-75
2024/01/27 08:53:49;;;;;;;9.97;1.90;;;2.50;99.90;;;;;;4413459;28;655617;-78
2024/01/27 08:56:40;;;;;;;10.27;2.23;;;2.50;99.90;;;;;;4434443;28;654024;-75
2024/01/27 08:59:27;;;;;;;10.88;2.60;;;2.50;99.90;;;;;;4393750;28;655857;-75
2024/01/27 09:02:15;;;;;;;18.50;2.87;;;2.40;99.90;;;;;;4444850;28;655810;-76
2024/01/27 09:05:03;;;;;;;14.33;2.40;;;2.20;99.90;;;;;;4437472;28;654902;-74
2024/01/27 09:07:51;;;;;;;19.70;4.00;;;2.00;99.90;;;;;;4421373;28;655020;-75
2024/01/27 09:10:38;;;;;;;14.90;3.20;;;1.80;99.90;;;;;;4410202;28;655639;-74
2024/01/27 09:13:25;;;;;;;16.03;2.73;;;1.80;99.90;;;;;;4441665;28;655680;-74
2024/01/27 09:16:14;;;;;;;9.27;2.40;;;1.70;99.90;;;;;;4412864;28;655394;-74
2024/01/27 09:19:01;;;;;;;13.27;2.53;;;1.60;99.90;;;;;;4438327;28;655747;-74
2024/01/27 09:21:49;;;;;;;19.97;3.03;;;1.50;99.90;;;;;;4416291;28;655821;-74
2024/01/27 09:24:37;;;;;;;14.90;2.43;;;1.50;99.90;;;;;;4441060;28;655669;-74
2024/01/27 09:27:24;;;;;;;9.80;2.67;;;1.40;99.90;;;;;;4409239;28;656470;-74
2024/01/27 09:30:12;;;;;;;7.47;1.60;;;1.40;99.90;;;;;;4442307;28;654257;-73
2024/01/27 09:32:59;;;;;;;9.33;2.60;;;1.30;99.90;;;;;;4425868;28;655469;-74
2024/01/27 09:35:47;;;;;;;11.47;2.77;;;1.40;99.90;;;;;;4438045;28;654777;-74
2024/01/27 09:38:34;;;;;;;14.93;3.70;;;1.20;99.90;;;;;;4404419;28;656703;-74
2024/01/27 09:41:23;;;;;;;11.63;3.70;;;1.20;99.90;;;;;;4433159;28;655359;-73
2024/01/27 09:44:10;;;;;;;15.30;3.90;;;1.30;99.90;;;;;;4418415;28;655923;-73
2024/01/27 09:46:57;;;;;;;11.30;2.97;;;1.20;99.90;;;;;;4408488;28;655547;-73
2024/01/27 09:49:45;;;;;;;5.63;1.70;;;1.20;99.90;;;;;;4435607;28;656238;-74
2024/01/27 09:52:32;;;;;;;11.10;3.97;;;1.20;99.90;;;;;;4437206;28;654488;-74
2024/01/27 09:55:19;;;;;;;11.60;2.97;;;1.20;99.90;;;;;;4419556;28;656238;-74
2024/01/27 09:58:08;;;;;;;6.40;2.42;;;1.20;99.90;;;;;;4424520;28;654987;-74
2024/01/27 10:00:55;;;;;;;7.87;3.10;;;1.20;99.90;;;;;;4412460;28;654980;-73
2024/01/27 10:03:43;;;;;;;13.20;3.30;;;1.20;99.90;;;;;;4413312;28;654191;-73
2024/01/27 10:06:30;;;;;;;6.40;3.00;;;1.10;99.90;;;;;;4444621;28;656148;-74
2024/01/27 10:09:17;;;;;;;12.73;4.27;;;1.10;99.90;;;;;;4426049;28;654587;-74
2024/01/27 10:12:05;;;;;;;13.43;4.63;;;1.00;99.90;;;;;;4435615;28;655593;-74
2024/01/27 10:14:54;;;;;;;14.38;5.03;;;1.00;99.90;;;;;;4400233;28;655532;-73
2024/01/27 10:17:41;;;;;;;10.53;2.53;;;0.90;99.90;;;;;;4436957;28;655886;-73
2024/01/27 10:20:30;;;;;;;14.27;3.43;;;1.00;99.90;;;;;;4410514;28;657127;-73
2024/01/27 10:23:17;;;;;;;10.73;2.80;;;1.00;99.90;;;;;;4436756;28;655685;-73
2024/01/27 10:26:04;;;;;;;19.80;2.80;;;1.00;99.90;;;;;;4412350;28;655725;-73
2024/01/27 10:28:55;;;;;;;8.32;3.30;;;1.00;99.90;;;;;;4430494;28;655685;-73
2024/01/27 10:31:43;;;;;;;15.03;4.17;;;1.00;99.90;;;;;;4409456;28;655228;-73
2024/01/27 10:34:30;;;;;;;14.00;4.73;;;1.00;99.90;;;;;;4413523;28;655720;-73
2024/01/27 10:37:24;;;;;;;12.90;4.33;;;1.10;99.90;;;;;;4406690;28;655652;-73
2024/01/27 10:40:12;;;;;;;25.42;5.47;;;1.00;99.90;;;;;;4410436;28;655736;-73
2024/01/27 10:43:04;;;;;;;19.17;4.67;;;1.10;99.90;;;;;;4409858;28;655144;-74
2024/01/27 10:45:51;;;;;;;12.90;3.13;;;1.00;99.90;;;;;;4420706;28;656210;-73
2024/01/27 10:48:40;;;;;;;17.57;5.53;;;1.00;99.90;;;;;;4415298;28;656266;-73
2024/01/27 10:51:30;;;;;;;23.07;5.80;;;1.00;99.90;;;;;;4432722;28;655642;-73
2024/01/27 10:54:21;;;;;;;16.27;4.30;;;1.00;99.90;;;;;;4449697;28;654959;-73
2024/01/27 10:57:08;;;;;;;17.60;5.13;;;1.00;99.90;;;;;;4409852;28;655686;-73
2024/01/27 10:59:56;;;;;;;21.50;4.90;;;1.00;99.90;;;;;;4418456;28;656395;-73
2024/01/27 11:02:43;;;;;;;22.47;6.30;;;1.00;99.90;;;;;;4411384;28;655537;-74
2024/01/27 11:05:32;;;;;;;18.20;4.93;;;1.10;99.90;;;;;;4435986;28;655732;-74
2024/01/27 11:08:19;;;;;;;10.57;3.47;;;1.10;99.90;;;;;;4415563;28;655398;-73
2024/01/27 11:11:06;;;;;;;24.47;6.30;;;1.10;99.90;;;;;;4438983;28;655292;-74
2024/01/27 11:13:53;;;;;;;9.47;3.30;;;1.20;99.90;;;;;;4414469;28;655774;-73
2024/01/27 11:16:44;;;;;;;11.03;3.43;;;1.10;99.90;;;;;;4435878;28;655438;-73
2024/01/27 11:19:33;;;;;;;18.50;5.83;;;1.20;99.90;;;;;;4411437;28;655377;-73
2024/01/27 11:22:28;;;;;;;14.67;6.17;;;1.20;99.90;;;;;;4419181;28;656462;-73
2024/01/27 11:25:16;;;;;;;20.20;6.80;;;1.20;99.90;;;;;;4412353;28;655502;-73
2024/01/27 11:28:11;;;;;;;23.70;6.63;;;1.20;99.90;;;;;;4415248;28;655281;-73
2024/01/27 11:30:59;;;;;;;18.70;4.47;;;1.30;99.90;;;;;;4413190;28;655802;-73
2024/01/27 11:33:48;;;;;;;18.07;4.70;;;1.30;99.90;;;;;;4432746;28;656385;-73
2024/01/27 11:36:35;;;;;;;17.33;4.33;;;1.30;99.90;;;;;;4422203;28;656259;-73
2024/01/27 11:39:27;;;;;;;18.03;5.30;;;1.30;99.90;;;;;;4424756;28;655401;-73
2024/01/27 11:42:15;;;;;;;14.73;4.97;;;1.40;99.90;;;;;;4416997;28;655676;-73
2024/01/27 11:45:04;;;;;;;20.80;5.87;;;1.30;99.90;;;;;;4415589;28;655445;-73
2024/01/27 11:47:51;;;;;;;21.03;5.70;;;1.30;99.90;;;;;;4430480;28;655683;-73
2024/01/27 11:50:38;;;;;;;6.80;2.40;;;1.30;99.90;;;;;;4416966;28;655426;-73
2024/01/27 11:53:25;;;;;;;25.00;7.20;;;1.40;99.90;;;;;;4439414;28;654742;-73
2024/01/27 11:56:14;;;;;;;23.33;6.57;;;1.30;99.90;;;;;;4411095;28;655276;-73
2024/01/27 11:59:01;;;;;;;19.67;6.27;;;1.30;99.90;;;;;;4433579;28;654923;-73
2024/01/27 12:01:48;;;;;;;18.58;5.35;;;1.30;99.90;;;;;;4412558;28;655883;-73
2024/01/27 12:04:36;;;;;;;23.73;6.00;;;1.30;99.90;;;;;;4438106;28;655775;-73
2024/01/27 12:07:23;;;;;;;23.03;5.67;;;1.30;99.90;;;;;;4412951;28;655501;-74
2024/01/27 12:10:11;;;;;;;13.30;4.93;;;1.30;99.90;;;;;;4437045;28;656793;-73
2024/01/27 12:12:59;;;;;;;19.90;5.33;;;1.20;99.90;;;;;;4414010;28;656525;-73
2024/01/27 12:15:47;;;;;;;26.50;7.17;;;1.20;99.90;;;;;;4415281;28;655643;-73
2024/01/27 12:18:34;;;;;;;24.77;7.45;;;1.20;99.90;;;;;;4396710;28;656357;-73
2024/01/27 12:21:22;;;;;;;21.30;6.87;;;1.20;99.90;;;;;;4427655;28;655952;-73
2024/01/27 12:24:16;;;;;;;24.90;6.83;;;1.20;99.90;;;;;;4403696;28;655497;-74
2024/01/27 12:27:03;;;;;;;23.37;7.07;;;1.20;99.90;;;;;;4414274;28;655682;-74
2024/01/27 12:29:52;;;;;;;14.93;5.03;;;1.20;99.90;;;;;;4436390;28;656081;-74
2024/01/27 12:32:39;;;;;;;22.70;7.97;;;1.20;99.90;;;;;;4412948;28;656218;-74
2024/01/27 12:35:28;;;;;;;28.83;7.47;;;1.20;99.90;;;;;;4436704;28;655827;-74
2024/01/27 12:38:16;;;;;;;21.95;7.60;;;1.10;99.90;;;;;;4415210;28;656292;-74
2024/01/27 12:41:03;;;;;;;18.50;6.63;;;1.20;99.90;;;;;;4423036;28;655483;-73
2024/01/27 12:43:50;;;;;;;20.80;8.00;;;1.20;99.90;;;;;;4433867;28;655793;-74
2024/01/27 12:46:39;;;;;;;18.07;6.53;;;1.30;99.90;;;;;;4421749;28;656028;-73
2024/01/27 12:49:26;;;;;;;13.60;4.23;;;1.30;99.90;;;;;;4428927;28;656176;-73
2024/01/27 12:52:13;;;;;;;20.53;6.50;;;1.30;99.90;;;;;;4412509;28;656040;-74
2024/01/27 12:55:01;;;;;;;17.33;6.40;;;1.40;99.90;;;;;;4436982;28;655713;-73
2024/01/27 12:57:48;;;;;;;21.27;7.10;;;1.40;99.90;;;;;;4412029;28;655418;-74
2024/01/27 13:00:35;;;;;;;28.20;7.77;;;1.40;99.90;;;;;;4433289;28;656388;-74
2024/01/27 13:03:24;;;;;;;18.13;6.83;;;1.40;99.90;;;;;;4424369;28;655533;-74
2024/01/27 13:06:11;;;;;;;23.97;6.53;;;1.40;99.90;;;;;;4439161;28;655435;-74
2024/01/27 13:08:58;;;;;;;19.00;8.03;;;1.40;99.90;;;;;;4420535;28;655605;-73
2024/01/27 13:11:45;;;;;;;12.40;5.33;;;1.50;99.90;;;;;;4433893;28;656050;-74
2024/01/27 13:14:33;;;;;;;11.30;4.10;;;1.50;99.90;;;;;;4418816;28;655999;-74
2024/01/27 13:17:20;;;;;;;12.70;4.03;;;1.50;99.90;;;;;;4432328;28;656670;-74
2024/01/27 13:20:10;;;;;;;8.33;3.33;;;1.50;99.90;;;;;;4415502;28;655752;-74
2024/01/27 13:22:58;;;;;;;17.10;5.53;;;1.50;99.90;;;;;;4423359;28;654952;-74
2024/01/27 13:25:46;;;;;;;18.50;6.30;;;1.60;99.90;;;;;;4437654;28;656094;-74
2024/01/27 13:28:33;;;;;;;30.53;8.73;;;1.60;99.90;;;;;;4408620;28;655565;-74
2024/01/27 13:31:20;;;;;;;21.63;9.60;;;1.60;99.90;;;;;;4433468;28;656222;-74
2024/01/27 13:34:07;;;;;;;16.40;3.97;;;1.60;99.90;;;;;;4416268;28;655792;-74
2024/01/27 13:36:56;;;;;;;22.97;7.63;;;1.60;99.90;;;;;;4440756;28;655027;-74
2024/01/27 13:39:44;;;;;;;22.80;7.90;;;1.60;99.90;;;;;;4410539;28;656078;-74
2024/01/27 13:42:31;;;;;;;22.00;7.80;;;1.60;99.90;;;;;;4431770;28;655712;-74
2024/01/27 13:45:18;;;;;;;17.73;6.17;;;1.60;99.90;;;;;;4418773;28;655247;-75
2024/01/27 13:48:06;;;;;;;24.80;6.97;;;1.60;99.90;;;;;;4432787;28;655959;-74
2024/01/27 13:50:53;;;;;;;19.20;6.67;;;1.50;99.90;;;;;;4410580;28;655710;-74
2024/01/27 13:53:42;;;;;;;13.43;4.87;;;1.50;99.90;;;;;;4438307;28;655539;-74
2024/01/27 13:56:32;;;;;;;9.27;3.60;;;1.60;99.90;;;;;;4407533;28;656460;-74
2024/01/27 13:59:21;;;;;;;24.07;8.37;;;1.50;99.90;;;;;;4417794;28;655166;-73
2024/01/27 14:02:08;;;;;;;22.80;8.27;;;1.50;99.90;;;;;;4411087;28;655435;-74
2024/01/27 14:04:56;;;;;;;14.37;4.60;;;1.50;99.90;;;;;;4433986;28;656163;-74
2024/01/27 14:07:43;;;;;;;19.03;7.83;;;1.60;99.90;;;;;;4418173;28;656288;-74
2024/01/27 14:10:31;;;;;;;16.33;3.80;;;1.50;99.90;;;;;;4432304;28;656495;-74
2024/01/27 14:13:18;;;;;;;21.23;10.27;;;1.50;99.90;;;;;;4410886;28;655260;-73
2024/01/27 14:16:06;;;;;;;25.37;8.90;;;1.50;99.90;;;;;;4425820;28;657097;-74
2024/01/27 14:18:53;;;;;;;18.47;8.43;;;1.50;99.90;;;;;;4400559;28;655102;-76
2024/01/27 14:21:40;;;;;;;28.52;10.85;;;1.40;99.90;;;;;;4449025;28;656197;-74
2024/01/27 14:24:28;;;;;;;27.23;9.77;;;1.40;99.90;;;;;;4416990;28;656686;-74
2024/01/27 14:27:17;;;;;;;31.20;12.03;;;1.40;99.90;;;;;;4422516;28;656454;-74